sensor_id;sensor_type;location;lat;lon;timestamp;P1;durP1;ratioP1;P2;durP2;ratioP2
52468;SDS011;38381;53.688;10.776;2022-10-16T00:04:31;5.05;;;3.42;;
52468;SDS011;38381;53.688;10.776;2022-10-16T00:09:31;3.42;;;3.13;;
52468;SDS011;38381;53.688;10.776;2022-10-16T00:14:32;3.90;;;3.15;;
52468;SDS011;38381;53.688;10.776;2022-10-16T00:19:32;3.15;;;2.85;;
52468;SDS011;38381;53.688;10.776;2022-10-16T00:24:32;3.90;;;3.47;;
52468;SDS011;38381;53.688;10.776;2022-10-16T00:29:33;4.07;;;3.58;;
52468;SDS011;38381;53.688;10.776;2022-10-16T00:34:33;5.83;;;4.60;;
52468;SDS011;38381;53.688;10.776;2022-10-16T00:39:34;6.10;;;4.07;;
52468;SDS011;38381;53.688;10.776;2022-10-16T00:49:43;5.55;;;4.93;;
52468;SDS011;38381;53.688;10.776;2022-10-16T00:54:44;4.80;;;4.30;;
52468;SDS011;38381;53.688;10.776;2022-10-16T00:59:46;4.32;;;3.92;;
52468;SDS011;38381;53.688;10.776;2022-10-16T01:04:48;5.18;;;4.00;;
52468;SDS011;38381;53.688;10.776;2022-10-16T01:25:19;5.38;;;3.85;;
52468;SDS011;38381;53.688;10.776;2022-10-16T01:30:30;7.63;;;4.35;;
52468;SDS011;38381;53.688;10.776;2022-10-16T01:35:35;5.65;;;4.90;;
52468;SDS011;38381;53.688;10.776;2022-10-16T01:40:40;7.97;;;4.60;;
52468;SDS011;38381;53.688;10.776;2022-10-16T01:45:45;5.78;;;4.57;;
52468;SDS011;38381;53.688;10.776;2022-10-16T01:50:52;5.25;;;4.38;;
52468;SDS011;38381;53.688;10.776;2022-10-16T01:56:03;5.13;;;4.45;;
52468;SDS011;38381;53.688;10.776;2022-10-16T02:01:07;5.40;;;4.75;;
52468;SDS011;38381;53.688;10.776;2022-10-16T02:06:11;4.68;;;4.13;;
52468;SDS011;38381;53.688;10.776;2022-10-16T02:11:12;5.07;;;4.10;;
52468;SDS011;38381;53.688;10.776;2022-10-16T02:16:13;4.70;;;4.22;;
52468;SDS011;38381;53.688;10.776;2022-10-16T02:26:32;3.72;;;3.33;;
52468;SDS011;38381;53.688;10.776;2022-10-16T02:31:41;4.93;;;4.03;;
52468;SDS011;38381;53.688;10.776;2022-10-16T02:36:45;4.18;;;3.33;;
52468;SDS011;38381;53.688;10.776;2022-10-16T02:41:48;4.75;;;3.85;;
52468;SDS011;38381;53.688;10.776;2022-10-16T02:46:48;4.38;;;3.53;;
52468;SDS011;38381;53.688;10.776;2022-10-16T02:51:49;4.95;;;2.90;;
52468;SDS011;38381;53.688;10.776;2022-10-16T02:56:49;4.57;;;3.08;;
52468;SDS011;38381;53.688;10.776;2022-10-16T03:01:50;4.68;;;3.15;;
52468;SDS011;38381;53.688;10.776;2022-10-16T03:06:50;5.47;;;3.42;;
52468;SDS011;38381;53.688;10.776;2022-10-16T03:11:51;6.20;;;3.03;;
52468;SDS011;38381;53.688;10.776;2022-10-16T03:16:52;2.38;;;1.92;;
52468;SDS011;38381;53.688;10.776;2022-10-16T03:21:52;4.40;;;2.67;;
52468;SDS011;38381;53.688;10.776;2022-10-16T03:26:53;5.30;;;2.40;;
52468;SDS011;38381;53.688;10.776;2022-10-16T03:31:53;3.10;;;2.30;;
52468;SDS011;38381;53.688;10.776;2022-10-16T03:36:54;2.88;;;2.40;;
52468;SDS011;38381;53.688;10.776;2022-10-16T03:41:54;3.53;;;2.90;;
52468;SDS011;38381;53.688;10.776;2022-10-16T03:46:55;3.65;;;2.20;;
52468;SDS011;38381;53.688;10.776;2022-10-16T03:51:55;2.63;;;2.17;;
52468;SDS011;38381;53.688;10.776;2022-10-16T03:56:56;2.90;;;2.42;;
52468;SDS011;38381;53.688;10.776;2022-10-16T04:01:56;2.92;;;2.08;;
52468;SDS011;38381;53.688;10.776;2022-10-16T04:06:56;2.80;;;2.33;;
52468;SDS011;38381;53.688;10.776;2022-10-16T04:11:57;3.28;;;2.25;;
52468;SDS011;38381;53.688;10.776;2022-10-16T04:16:57;5.22;;;2.70;;
52468;SDS011;38381;53.688;10.776;2022-10-16T04:21:58;1.98;;;1.70;;
52468;SDS011;38381;53.688;10.776;2022-10-16T04:26:58;4.32;;;2.58;;
52468;SDS011;38381;53.688;10.776;2022-10-16T04:31:59;3.63;;;2.35;;
52468;SDS011;38381;53.688;10.776;2022-10-16T04:36:59;5.28;;;2.70;;
52468;SDS011;38381;53.688;10.776;2022-10-16T04:42:00;2.38;;;1.95;;
52468;SDS011;38381;53.688;10.776;2022-10-16T04:47:01;2.70;;;2.17;;
52468;SDS011;38381;53.688;10.776;2022-10-16T04:52:01;4.15;;;1.92;;
52468;SDS011;38381;53.688;10.776;2022-10-16T04:57:02;2.85;;;2.20;;
52468;SDS011;38381;53.688;10.776;2022-10-16T05:02:02;3.95;;;2.75;;
52468;SDS011;38381;53.688;10.776;2022-10-16T05:07:03;5.55;;;2.20;;
52468;SDS011;38381;53.688;10.776;2022-10-16T05:12:04;3.83;;;2.47;;
52468;SDS011;38381;53.688;10.776;2022-10-16T05:17:04;3.25;;;2.00;;
52468;SDS011;38381;53.688;10.776;2022-10-16T05:22:05;5.80;;;2.30;;
52468;SDS011;38381;53.688;10.776;2022-10-16T05:27:05;2.65;;;1.95;;
52468;SDS011;38381;53.688;10.776;2022-10-16T05:32:06;10.93;;;2.03;;
52468;SDS011;38381;53.688;10.776;2022-10-16T05:37:06;4.47;;;2.42;;
52468;SDS011;38381;53.688;10.776;2022-10-16T05:42:07;2.35;;;1.90;;
52468;SDS011;38381;53.688;10.776;2022-10-16T05:47:08;2.95;;;2.10;;
52468;SDS011;38381;53.688;10.776;2022-10-16T05:52:08;2.95;;;2.00;;
52468;SDS011;38381;53.688;10.776;2022-10-16T05:57:09;4.35;;;2.42;;
52468;SDS011;38381;53.688;10.776;2022-10-16T06:02:12;3.40;;;2.42;;
52468;SDS011;38381;53.688;10.776;2022-10-16T06:07:14;2.95;;;2.00;;
52468;SDS011;38381;53.688;10.776;2022-10-16T06:12:14;5.28;;;2.13;;
52468;SDS011;38381;53.688;10.776;2022-10-16T06:17:14;3.30;;;2.10;;
52468;SDS011;38381;53.688;10.776;2022-10-16T06:22:15;3.40;;;2.33;;
52468;SDS011;38381;53.688;10.776;2022-10-16T06:27:16;4.03;;;2.22;;
52468;SDS011;38381;53.688;10.776;2022-10-16T06:32:16;2.55;;;2.10;;
52468;SDS011;38381;53.688;10.776;2022-10-16T06:37:17;7.88;;;2.55;;
52468;SDS011;38381;53.688;10.776;2022-10-16T06:42:17;2.80;;;1.70;;
52468;SDS011;38381;53.688;10.776;2022-10-16T06:47:18;5.03;;;2.83;;
52468;SDS011;38381;53.688;10.776;2022-10-16T06:52:19;3.35;;;2.35;;
52468;SDS011;38381;53.688;10.776;2022-10-16T06:57:20;4.38;;;2.22;;
52468;SDS011;38381;53.688;10.776;2022-10-16T07:02:20;2.45;;;2.15;;
52468;SDS011;38381;53.688;10.776;2022-10-16T07:07:21;3.88;;;2.33;;
52468;SDS011;38381;53.688;10.776;2022-10-16T07:12:24;2.72;;;2.10;;
52468;SDS011;38381;53.688;10.776;2022-10-16T07:17:25;6.95;;;2.60;;
52468;SDS011;38381;53.688;10.776;2022-10-16T07:22:25;3.13;;;2.17;;
52468;SDS011;38381;53.688;10.776;2022-10-16T07:27:28;6.90;;;3.08;;
52468;SDS011;38381;53.688;10.776;2022-10-16T07:32:28;4.97;;;2.72;;
52468;SDS011;38381;53.688;10.776;2022-10-16T07:37:29;4.32;;;2.67;;
52468;SDS011;38381;53.688;10.776;2022-10-16T07:42:29;5.95;;;3.03;;
52468;SDS011;38381;53.688;10.776;2022-10-16T07:47:30;5.05;;;2.72;;
52468;SDS011;38381;53.688;10.776;2022-10-16T07:52:30;2.60;;;2.28;;
52468;SDS011;38381;53.688;10.776;2022-10-16T07:57:31;3.25;;;1.88;;
52468;SDS011;38381;53.688;10.776;2022-10-16T08:02:31;8.32;;;2.67;;
52468;SDS011;38381;53.688;10.776;2022-10-16T08:07:32;5.90;;;2.63;;
52468;SDS011;38381;53.688;10.776;2022-10-16T08:12:32;11.00;;;2.40;;
52468;SDS011;38381;53.688;10.776;2022-10-16T08:17:33;3.28;;;2.00;;
52468;SDS011;38381;53.688;10.776;2022-10-16T08:22:33;2.65;;;2.10;;
52468;SDS011;38381;53.688;10.776;2022-10-16T08:27:34;3.25;;;2.22;;
52468;SDS011;38381;53.688;10.776;2022-10-16T08:32:34;4.00;;;2.15;;
52468;SDS011;38381;53.688;10.776;2022-10-16T08:37:35;3.70;;;2.00;;
52468;SDS011;38381;53.688;10.776;2022-10-16T08:48:51;4.28;;;2.55;;
52468;SDS011;38381;53.688;10.776;2022-10-16T08:53:54;6.80;;;1.90;;
52468;SDS011;38381;53.688;10.776;2022-10-16T08:59:01;3.30;;;1.83;;
52468;SDS011;38381;53.688;10.776;2022-10-16T09:20:49;4.25;;;1.67;;
52468;SDS011;38381;53.688;10.776;2022-10-16T09:25:30;2.45;;;1.80;;
52468;SDS011;38381;53.688;10.776;2022-10-16T09:30:32;2.83;;;1.70;;
52468;SDS011;38381;53.688;10.776;2022-10-16T09:35:40;1.77;;;1.52;;
52468;SDS011;38381;53.688;10.776;2022-10-16T09:40:42;3.83;;;1.50;;
52468;SDS011;38381;53.688;10.776;2022-10-16T09:45:43;2.38;;;1.65;;
52468;SDS011;38381;53.688;10.776;2022-10-16T09:51:36;2.88;;;1.75;;
52468;SDS011;38381;53.688;10.776;2022-10-16T09:56:31;6.40;;;2.22;;
52468;SDS011;38381;53.688;10.776;2022-10-16T10:01:36;3.95;;;1.65;;
52468;SDS011;38381;53.688;10.776;2022-10-16T10:06:44;5.05;;;1.58;;
52468;SDS011;38381;53.688;10.776;2022-10-16T10:16:52;2.30;;;1.67;;
52468;SDS011;38381;53.688;10.776;2022-10-16T10:22:12;2.47;;;1.20;;
52468;SDS011;38381;53.688;10.776;2022-10-16T10:27:16;2.13;;;1.48;;
52468;SDS011;38381;53.688;10.776;2022-10-16T11:09:36;1.85;;;1.45;;
52468;SDS011;38381;53.688;10.776;2022-10-16T11:24:54;2.40;;;1.00;;
52468;SDS011;38381;53.688;10.776;2022-10-16T11:30:04;1.98;;;1.10;;
52468;SDS011;38381;53.688;10.776;2022-10-16T11:35:15;3.75;;;1.30;;
52468;SDS011;38381;53.688;10.776;2022-10-16T11:40:24;2.17;;;1.00;;
52468;SDS011;38381;53.688;10.776;2022-10-16T11:45:45;3.22;;;1.20;;
52468;SDS011;38381;53.688;10.776;2022-10-16T11:50:53;5.05;;;1.13;;
52468;SDS011;38381;53.688;10.776;2022-10-16T11:56:00;2.88;;;0.98;;
52468;SDS011;38381;53.688;10.776;2022-10-16T12:01:10;3.47;;;1.55;;
52468;SDS011;38381;53.688;10.776;2022-10-16T12:11:36;1.73;;;1.20;;
52468;SDS011;38381;53.688;10.776;2022-10-16T12:16:38;4.47;;;1.05;;
52468;SDS011;38381;53.688;10.776;2022-10-16T12:21:50;1.15;;;0.90;;
52468;SDS011;38381;53.688;10.776;2022-10-16T12:26:52;2.80;;;0.98;;
52468;SDS011;38381;53.688;10.776;2022-10-16T12:31:53;2.40;;;1.35;;
52468;SDS011;38381;53.688;10.776;2022-10-16T12:36:54;2.30;;;1.10;;
52468;SDS011;38381;53.688;10.776;2022-10-16T12:42:00;3.28;;;1.17;;
52468;SDS011;38381;53.688;10.776;2022-10-16T12:47:02;2.42;;;1.73;;
52468;SDS011;38381;53.688;10.776;2022-10-16T12:52:03;1.13;;;1.00;;
52468;SDS011;38381;53.688;10.776;2022-10-16T13:12:41;4.88;;;1.33;;
52468;SDS011;38381;53.688;10.776;2022-10-16T13:23:01;1.88;;;1.38;;
52468;SDS011;38381;53.688;10.776;2022-10-16T13:28:07;3.60;;;1.07;;
52468;SDS011;38381;53.688;10.776;2022-10-16T13:33:14;3.15;;;1.38;;
52468;SDS011;38381;53.688;10.776;2022-10-16T13:38:18;1.77;;;1.00;;
52468;SDS011;38381;53.688;10.776;2022-10-16T13:43:21;4.35;;;1.60;;
52468;SDS011;38381;53.688;10.776;2022-10-16T13:48:25;3.92;;;1.45;;
52468;SDS011;38381;53.688;10.776;2022-10-16T13:53:26;1.92;;;1.23;;
52468;SDS011;38381;53.688;10.776;2022-10-16T13:58:27;8.60;;;1.88;;
52468;SDS011;38381;53.688;10.776;2022-10-16T14:03:28;3.45;;;1.50;;
52468;SDS011;38381;53.688;10.776;2022-10-16T14:08:30;2.42;;;1.40;;
52468;SDS011;38381;53.688;10.776;2022-10-16T14:13:32;3.03;;;1.25;;
52468;SDS011;38381;53.688;10.776;2022-10-16T14:18:37;4.18;;;1.55;;
52468;SDS011;38381;53.688;10.776;2022-10-16T14:23:39;4.65;;;1.65;;
52468;SDS011;38381;53.688;10.776;2022-10-16T14:28:41;1.93;;;1.10;;
52468;SDS011;38381;53.688;10.776;2022-10-16T14:33:43;4.43;;;1.70;;
52468;SDS011;38381;53.688;10.776;2022-10-16T14:38:48;4.63;;;1.45;;
52468;SDS011;38381;53.688;10.776;2022-10-16T14:43:54;1.80;;;1.63;;
52468;SDS011;38381;53.688;10.776;2022-10-16T14:49:02;1.70;;;1.52;;
52468;SDS011;38381;53.688;10.776;2022-10-16T14:54:14;2.95;;;1.58;;
52468;SDS011;38381;53.688;10.776;2022-10-16T14:59:22;2.80;;;1.38;;
52468;SDS011;38381;53.688;10.776;2022-10-16T15:04:27;1.92;;;1.33;;
52468;SDS011;38381;53.688;10.776;2022-10-16T15:09:28;4.18;;;1.60;;
52468;SDS011;38381;53.688;10.776;2022-10-16T15:14:28;2.75;;;1.48;;
52468;SDS011;38381;53.688;10.776;2022-10-16T15:19:29;7.80;;;1.50;;
52468;SDS011;38381;53.688;10.776;2022-10-16T15:24:29;3.22;;;2.05;;
52468;SDS011;38381;53.688;10.776;2022-10-16T15:29:30;4.80;;;1.33;;
52468;SDS011;38381;53.688;10.776;2022-10-16T15:34:31;3.90;;;1.45;;
52468;SDS011;38381;53.688;10.776;2022-10-16T15:39:31;2.07;;;1.87;;
52468;SDS011;38381;53.688;10.776;2022-10-16T15:44:31;3.25;;;1.73;;
52468;SDS011;38381;53.688;10.776;2022-10-16T15:49:32;6.17;;;2.07;;
52468;SDS011;38381;53.688;10.776;2022-10-16T15:54:32;3.80;;;1.60;;
52468;SDS011;38381;53.688;10.776;2022-10-16T15:59:33;5.07;;;1.90;;
52468;SDS011;38381;53.688;10.776;2022-10-16T16:04:33;4.82;;;1.98;;
52468;SDS011;38381;53.688;10.776;2022-10-16T16:09:34;2.95;;;1.92;;
52468;SDS011;38381;53.688;10.776;2022-10-16T16:14:34;2.47;;;1.55;;
52468;SDS011;38381;53.688;10.776;2022-10-16T16:19:34;1.67;;;1.45;;
52468;SDS011;38381;53.688;10.776;2022-10-16T16:24:35;3.85;;;1.83;;
52468;SDS011;38381;53.688;10.776;2022-10-16T16:29:35;3.75;;;1.65;;
52468;SDS011;38381;53.688;10.776;2022-10-16T16:34:36;5.40;;;3.03;;
52468;SDS011;38381;53.688;10.776;2022-10-16T16:39:36;4.85;;;2.58;;
52468;SDS011;38381;53.688;10.776;2022-10-16T16:44:37;3.30;;;2.45;;
52468;SDS011;38381;53.688;10.776;2022-10-16T16:49:37;5.10;;;2.38;;
52468;SDS011;38381;53.688;10.776;2022-10-16T16:54:38;3.53;;;2.50;;
52468;SDS011;38381;53.688;10.776;2022-10-16T16:59:38;2.53;;;2.20;;
52468;SDS011;38381;53.688;10.776;2022-10-16T17:04:39;5.32;;;2.75;;
52468;SDS011;38381;53.688;10.776;2022-10-16T17:09:39;2.85;;;1.85;;
52468;SDS011;38381;53.688;10.776;2022-10-16T17:14:40;7.13;;;2.63;;
52468;SDS011;38381;53.688;10.776;2022-10-16T17:19:40;13.25;;;5.80;;
52468;SDS011;38381;53.688;10.776;2022-10-16T17:24:41;11.65;;;8.20;;
52468;SDS011;38381;53.688;10.776;2022-10-16T17:29:42;9.00;;;4.47;;
52468;SDS011;38381;53.688;10.776;2022-10-16T17:34:43;7.15;;;3.28;;
52468;SDS011;38381;53.688;10.776;2022-10-16T17:39:43;4.15;;;3.13;;
52468;SDS011;38381;53.688;10.776;2022-10-16T17:44:44;3.88;;;2.80;;
52468;SDS011;38381;53.688;10.776;2022-10-16T17:49:44;4.13;;;3.22;;
52468;SDS011;38381;53.688;10.776;2022-10-16T17:54:45;3.38;;;2.97;;
52468;SDS011;38381;53.688;10.776;2022-10-16T17:59:46;6.55;;;2.67;;
52468;SDS011;38381;53.688;10.776;2022-10-16T18:04:49;4.03;;;2.55;;
52468;SDS011;38381;53.688;10.776;2022-10-16T18:09:51;4.65;;;3.20;;
52468;SDS011;38381;53.688;10.776;2022-10-16T18:14:51;5.57;;;3.30;;
52468;SDS011;38381;53.688;10.776;2022-10-16T18:19:57;5.00;;;2.63;;
52468;SDS011;38381;53.688;10.776;2022-10-16T18:24:57;3.00;;;2.25;;
52468;SDS011;38381;53.688;10.776;2022-10-16T18:29:58;4.68;;;2.95;;
52468;SDS011;38381;53.688;10.776;2022-10-16T18:34:59;4.68;;;2.15;;
52468;SDS011;38381;53.688;10.776;2022-10-16T18:40:00;3.13;;;2.10;;
52468;SDS011;38381;53.688;10.776;2022-10-16T18:45:00;3.67;;;2.28;;
52468;SDS011;38381;53.688;10.776;2022-10-16T18:50:01;6.13;;;2.90;;
52468;SDS011;38381;53.688;10.776;2022-10-16T18:55:01;4.97;;;3.53;;
52468;SDS011;38381;53.688;10.776;2022-10-16T19:00:02;6.88;;;3.30;;
52468;SDS011;38381;53.688;10.776;2022-10-16T19:05:03;8.27;;;2.78;;
52468;SDS011;38381;53.688;10.776;2022-10-16T19:10:04;2.95;;;2.65;;
52468;SDS011;38381;53.688;10.776;2022-10-16T19:15:05;2.75;;;2.28;;
52468;SDS011;38381;53.688;10.776;2022-10-16T19:20:06;6.32;;;2.50;;
52468;SDS011;38381;53.688;10.776;2022-10-16T19:25:07;5.35;;;2.65;;
52468;SDS011;38381;53.688;10.776;2022-10-16T19:30:08;3.28;;;1.83;;
52468;SDS011;38381;53.688;10.776;2022-10-16T19:35:09;3.35;;;2.40;;
52468;SDS011;38381;53.688;10.776;2022-10-16T19:40:09;5.93;;;2.60;;
52468;SDS011;38381;53.688;10.776;2022-10-16T19:45:10;2.97;;;2.10;;
52468;SDS011;38381;53.688;10.776;2022-10-16T19:50:11;3.47;;;2.28;;
52468;SDS011;38381;53.688;10.776;2022-10-16T19:55:12;4.50;;;3.33;;
52468;SDS011;38381;53.688;10.776;2022-10-16T20:00:13;6.18;;;4.63;;
52468;SDS011;38381;53.688;10.776;2022-10-16T20:05:13;7.05;;;4.22;;
52468;SDS011;38381;53.688;10.776;2022-10-16T20:10:14;17.55;;;3.30;;
52468;SDS011;38381;53.688;10.776;2022-10-16T20:15:14;5.72;;;2.53;;
52468;SDS011;38381;53.688;10.776;2022-10-16T20:20:15;9.02;;;5.70;;
52468;SDS011;38381;53.688;10.776;2022-10-16T20:25:15;11.23;;;9.43;;
52468;SDS011;38381;53.688;10.776;2022-10-16T20:30:16;6.25;;;3.88;;
52468;SDS011;38381;53.688;10.776;2022-10-16T20:35:17;6.97;;;3.40;;
52468;SDS011;38381;53.688;10.776;2022-10-16T20:40:17;5.13;;;2.90;;
52468;SDS011;38381;53.688;10.776;2022-10-16T20:45:18;6.20;;;3.00;;
52468;SDS011;38381;53.688;10.776;2022-10-16T20:50:18;4.22;;;3.50;;
52468;SDS011;38381;53.688;10.776;2022-10-16T20:55:19;6.03;;;4.63;;
52468;SDS011;38381;53.688;10.776;2022-10-16T21:00:19;8.82;;;3.80;;
52468;SDS011;38381;53.688;10.776;2022-10-16T21:05:21;5.25;;;3.22;;
52468;SDS011;38381;53.688;10.776;2022-10-16T21:10:21;6.70;;;3.97;;
52468;SDS011;38381;53.688;10.776;2022-10-16T21:15:22;4.60;;;2.80;;
52468;SDS011;38381;53.688;10.776;2022-10-16T21:20:23;4.20;;;2.70;;
52468;SDS011;38381;53.688;10.776;2022-10-16T21:25:23;3.10;;;2.50;;
52468;SDS011;38381;53.688;10.776;2022-10-16T21:30:23;4.63;;;2.72;;
52468;SDS011;38381;53.688;10.776;2022-10-16T21:35:24;6.38;;;2.70;;
52468;SDS011;38381;53.688;10.776;2022-10-16T21:40:25;4.72;;;2.72;;
52468;SDS011;38381;53.688;10.776;2022-10-16T21:45:25;3.28;;;2.45;;
52468;SDS011;38381;53.688;10.776;2022-10-16T21:50:26;6.03;;;2.80;;
52468;SDS011;38381;53.688;10.776;2022-10-16T21:55:26;4.40;;;2.85;;
52468;SDS011;38381;53.688;10.776;2022-10-16T22:00:27;3.95;;;2.35;;
52468;SDS011;38381;53.688;10.776;2022-10-16T22:05:27;6.35;;;3.08;;
52468;SDS011;38381;53.688;10.776;2022-10-16T22:10:27;7.22;;;2.70;;
52468;SDS011;38381;53.688;10.776;2022-10-16T22:15:28;7.00;;;2.72;;
52468;SDS011;38381;53.688;10.776;2022-10-16T22:20:28;5.00;;;3.10;;
52468;SDS011;38381;53.688;10.776;2022-10-16T22:25:29;4.45;;;2.67;;
52468;SDS011;38381;53.688;10.776;2022-10-16T22:30:29;3.78;;;2.60;;
52468;SDS011;38381;53.688;10.776;2022-10-16T22:35:30;6.13;;;2.92;;
52468;SDS011;38381;53.688;10.776;2022-10-16T22:40:35;3.42;;;2.70;;
52468;SDS011;38381;53.688;10.776;2022-10-16T22:45:37;4.38;;;2.75;;
52468;SDS011;38381;53.688;10.776;2022-10-16T22:50:37;8.27;;;3.25;;
52468;SDS011;38381;53.688;10.776;2022-10-16T22:55:38;8.98;;;4.00;;
52468;SDS011;38381;53.688;10.776;2022-10-16T23:00:39;9.75;;;4.15;;
52468;SDS011;38381;53.688;10.776;2022-10-16T23:05:41;5.72;;;3.75;;
52468;SDS011;38381;53.688;10.776;2022-10-16T23:10:42;7.50;;;4.15;;
52468;SDS011;38381;53.688;10.776;2022-10-16T23:15:45;5.15;;;3.25;;
52468;SDS011;38381;53.688;10.776;2022-10-16T23:20:45;4.07;;;3.35;;
52468;SDS011;38381;53.688;10.776;2022-10-16T23:25:46;5.72;;;3.58;;
52468;SDS011;38381;53.688;10.776;2022-10-16T23:30:46;7.75;;;3.40;;
52468;SDS011;38381;53.688;10.776;2022-10-16T23:35:47;3.60;;;3.17;;
52468;SDS011;38381;53.688;10.776;2022-10-16T23:40:47;8.02;;;4.10;;
52468;SDS011;38381;53.688;10.776;2022-10-16T23:45:47;6.32;;;4.03;;
52468;SDS011;38381;53.688;10.776;2022-10-16T23:50:48;4.03;;;3.45;;
52468;SDS011;38381;53.688;10.776;2022-10-16T23:55:49;5.28;;;3.10;;
